sensor_id;sensor_type;location;lat;lon;timestamp;temperature;humidity
8420;DHT22;4247;48.550;8.822;2022-11-20T00:01:25;4.70;99.90
8420;DHT22;4247;48.550;8.822;2022-11-20T00:03:53;4.70;99.90
8420;DHT22;4247;48.550;8.822;2022-11-20T00:06:22;4.70;99.90
8420;DHT22;4247;48.550;8.822;2022-11-20T00:08:49;4.70;99.90
8420;DHT22;4247;48.550;8.822;2022-11-20T00:11:18;4.60;99.90
8420;DHT22;4247;48.550;8.822;2022-11-20T00:13:46;4.60;99.90
8420;DHT22;4247;48.550;8.822;2022-11-20T00:16:15;4.60;99.90
8420;DHT22;4247;48.550;8.822;2022-11-20T00:18:43;4.60;99.90
8420;DHT22;4247;48.550;8.822;2022-11-20T00:21:13;4.50;99.90
8420;DHT22;4247;48.550;8.822;2022-11-20T00:23:40;4.50;99.90
8420;DHT22;4247;48.550;8.822;2022-11-20T00:26:09;4.50;99.90
8420;DHT22;4247;48.550;8.822;2022-11-20T00:28:36;4.40;99.90
8420;DHT22;4247;48.550;8.822;2022-11-20T00:31:05;4.40;99.90
8420;DHT22;4247;48.550;8.822;2022-11-20T00:33:33;4.40;99.90
8420;DHT22;4247;48.550;8.822;2022-11-20T00:36:02;4.40;99.90
8420;DHT22;4247;48.550;8.822;2022-11-20T00:38:30;4.40;99.90
8420;DHT22;4247;48.550;8.822;2022-11-20T00:40:57;4.40;99.90
8420;DHT22;4247;48.550;8.822;2022-11-20T00:43:24;4.30;99.90
8420;DHT22;4247;48.550;8.822;2022-11-20T00:45:56;4.30;99.90
8420;DHT22;4247;48.550;8.822;2022-11-20T00:48:23;4.30;99.90
8420;DHT22;4247;48.550;8.822;2022-11-20T00:50:50;4.20;99.90
8420;DHT22;4247;48.550;8.822;2022-11-20T00:53:18;4.20;99.90
8420;DHT22;4247;48.550;8.822;2022-11-20T00:55:53;4.20;99.90
8420;DHT22;4247;48.550;8.822;2022-11-20T00:58:20;4.20;99.90
8420;DHT22;4247;48.550;8.822;2022-11-20T01:00:47;4.10;99.90
8420;DHT22;4247;48.550;8.822;2022-11-20T01:03:14;4.10;99.90
8420;DHT22;4247;48.550;8.822;2022-11-20T01:05:41;4.10;99.90
8420;DHT22;4247;48.550;8.822;2022-11-20T01:08:08;4.10;99.90
8420;DHT22;4247;48.550;8.822;2022-11-20T01:10:36;4.10;99.90
8420;DHT22;4247;48.550;8.822;2022-11-20T01:13:03;4.10;99.90
8420;DHT22;4247;48.550;8.822;2022-11-20T01:15:47;4.10;99.90
8420;DHT22;4247;48.550;8.822;2022-11-20T01:18:14;4.00;99.90
8420;DHT22;4247;48.550;8.822;2022-11-20T01:20:41;4.00;99.90
8420;DHT22;4247;48.550;8.822;2022-11-20T01:23:08;4.00;99.90
8420;DHT22;4247;48.550;8.822;2022-11-20T01:25:36;4.00;99.90
8420;DHT22;4247;48.550;8.822;2022-11-20T01:28:02;4.00;99.90
8420;DHT22;4247;48.550;8.822;2022-11-20T01:30:29;3.90;99.90
8420;DHT22;4247;48.550;8.822;2022-11-20T01:32:56;3.90;99.90
8420;DHT22;4247;48.550;8.822;2022-11-20T01:35:23;3.80;99.90
8420;DHT22;4247;48.550;8.822;2022-11-20T01:37:50;3.80;99.90
8420;DHT22;4247;48.550;8.822;2022-11-20T01:40:17;3.80;99.90
8420;DHT22;4247;48.550;8.822;2022-11-20T01:43:11;3.80;99.90
8420;DHT22;4247;48.550;8.822;2022-11-20T01:46:00;3.80;99.90
8420;DHT22;4247;48.550;8.822;2022-11-20T01:48:32;3.80;99.90
8420;DHT22;4247;48.550;8.822;2022-11-20T01:51:01;3.80;99.90
8420;DHT22;4247;48.550;8.822;2022-11-20T01:53:32;3.80;99.90
8420;DHT22;4247;48.550;8.822;2022-11-20T01:56:01;3.80;99.90
8420;DHT22;4247;48.550;8.822;2022-11-20T01:58:35;3.80;99.90
8420;DHT22;4247;48.550;8.822;2022-11-20T02:01:04;3.80;99.90
8420;DHT22;4247;48.550;8.822;2022-11-20T02:03:31;3.80;99.90
8420;DHT22;4247;48.550;8.822;2022-11-20T02:06:04;3.80;99.90
8420;DHT22;4247;48.550;8.822;2022-11-20T02:08:34;3.80;99.90
8420;DHT22;4247;48.550;8.822;2022-11-20T02:11:01;3.80;99.90
8420;DHT22;4247;48.550;8.822;2022-11-20T02:13:29;3.80;99.90
8420;DHT22;4247;48.550;8.822;2022-11-20T02:16:14;3.80;99.90
8420;DHT22;4247;48.550;8.822;2022-11-20T02:18:42;3.80;99.90
8420;DHT22;4247;48.550;8.822;2022-11-20T02:21:15;3.80;99.90
8420;DHT22;4247;48.550;8.822;2022-11-20T02:24:01;3.70;99.90
8420;DHT22;4247;48.550;8.822;2022-11-20T02:26:31;3.70;99.90
8420;DHT22;4247;48.550;8.822;2022-11-20T02:29:00;3.70;99.90
8420;DHT22;4247;48.550;8.822;2022-11-20T02:31:28;3.70;99.90
8420;DHT22;4247;48.550;8.822;2022-11-20T02:33:56;3.70;99.90
8420;DHT22;4247;48.550;8.822;2022-11-20T02:36:25;3.70;99.90
8420;DHT22;4247;48.550;8.822;2022-11-20T02:38:54;3.70;99.90
8420;DHT22;4247;48.550;8.822;2022-11-20T02:41:21;3.60;99.90
8420;DHT22;4247;48.550;8.822;2022-11-20T02:43:48;3.60;99.90
8420;DHT22;4247;48.550;8.822;2022-11-20T02:46:15;3.60;99.90
8420;DHT22;4247;48.550;8.822;2022-11-20T02:48:42;3.60;99.90
8420;DHT22;4247;48.550;8.822;2022-11-20T02:51:09;3.60;99.90
8420;DHT22;4247;48.550;8.822;2022-11-20T02:53:35;3.60;99.90
8420;DHT22;4247;48.550;8.822;2022-11-20T02:56:05;3.60;99.90
8420;DHT22;4247;48.550;8.822;2022-11-20T02:58:32;3.60;99.90
8420;DHT22;4247;48.550;8.822;2022-11-20T03:00:58;3.70;99.90
8420;DHT22;4247;48.550;8.822;2022-11-20T03:03:25;3.70;99.90
8420;DHT22;4247;48.550;8.822;2022-11-20T03:05:52;3.80;99.90
8420;DHT22;4247;48.550;8.822;2022-11-20T03:08:19;3.80;99.90
8420;DHT22;4247;48.550;8.822;2022-11-20T03:10:46;3.90;99.90
8420;DHT22;4247;48.550;8.822;2022-11-20T03:13:14;3.90;99.90
8420;DHT22;4247;48.550;8.822;2022-11-20T03:15:41;3.90;99.90
8420;DHT22;4247;48.550;8.822;2022-11-20T03:18:08;4.00;99.90
8420;DHT22;4247;48.550;8.822;2022-11-20T03:20:35;4.00;99.90
8420;DHT22;4247;48.550;8.822;2022-11-20T03:23:02;4.00;99.90
8420;DHT22;4247;48.550;8.822;2022-11-20T03:25:29;4.10;99.90
8420;DHT22;4247;48.550;8.822;2022-11-20T03:27:56;4.10;99.90
8420;DHT22;4247;48.550;8.822;2022-11-20T03:30:24;4.10;99.90
8420;DHT22;4247;48.550;8.822;2022-11-20T03:32:53;4.10;99.90
8420;DHT22;4247;48.550;8.822;2022-11-20T03:35:20;4.10;99.90
8420;DHT22;4247;48.550;8.822;2022-11-20T03:37:47;4.10;99.90
8420;DHT22;4247;48.550;8.822;2022-11-20T03:40:14;4.20;99.90
8420;DHT22;4247;48.550;8.822;2022-11-20T03:42:41;4.20;99.90
8420;DHT22;4247;48.550;8.822;2022-11-20T03:45:15;4.20;99.90
8420;DHT22;4247;48.550;8.822;2022-11-20T03:47:44;4.30;99.90
8420;DHT22;4247;48.550;8.822;2022-11-20T03:50:12;4.30;99.90
8420;DHT22;4247;48.550;8.822;2022-11-20T03:52:39;4.30;99.90
8420;DHT22;4247;48.550;8.822;2022-11-20T03:55:07;4.30;99.90
8420;DHT22;4247;48.550;8.822;2022-11-20T03:57:34;4.40;99.90
8420;DHT22;4247;48.550;8.822;2022-11-20T04:00:01;4.40;99.90
8420;DHT22;4247;48.550;8.822;2022-11-20T04:02:28;4.50;99.90
8420;DHT22;4247;48.550;8.822;2022-11-20T04:04:56;4.50;99.90
8420;DHT22;4247;48.550;8.822;2022-11-20T04:07:23;4.50;99.90
8420;DHT22;4247;48.550;8.822;2022-11-20T04:09:50;4.60;99.90
8420;DHT22;4247;48.550;8.822;2022-11-20T04:12:16;4.60;99.90
8420;DHT22;4247;48.550;8.822;2022-11-20T04:14:43;4.70;99.90
8420;DHT22;4247;48.550;8.822;2022-11-20T04:17:10;4.70;99.90
8420;DHT22;4247;48.550;8.822;2022-11-20T04:19:37;4.70;99.90
8420;DHT22;4247;48.550;8.822;2022-11-20T04:22:05;4.70;99.90
8420;DHT22;4247;48.550;8.822;2022-11-20T04:24:32;4.70;99.90
8420;DHT22;4247;48.550;8.822;2022-11-20T04:26:59;4.70;99.90
8420;DHT22;4247;48.550;8.822;2022-11-20T04:29:25;4.80;99.90
8420;DHT22;4247;48.550;8.822;2022-11-20T04:31:52;4.70;99.90
8420;DHT22;4247;48.550;8.822;2022-11-20T04:34:19;4.80;99.90
8420;DHT22;4247;48.550;8.822;2022-11-20T04:36:46;4.70;99.90
8420;DHT22;4247;48.550;8.822;2022-11-20T04:39:14;4.80;99.90
8420;DHT22;4247;48.550;8.822;2022-11-20T04:41:42;4.80;99.90
8420;DHT22;4247;48.550;8.822;2022-11-20T04:44:09;4.80;99.90
8420;DHT22;4247;48.550;8.822;2022-11-20T04:46:38;4.80;99.90
8420;DHT22;4247;48.550;8.822;2022-11-20T04:49:06;4.80;99.90
8420;DHT22;4247;48.550;8.822;2022-11-20T04:51:33;4.80;99.90
8420;DHT22;4247;48.550;8.822;2022-11-20T04:54:00;4.80;99.90
8420;DHT22;4247;48.550;8.822;2022-11-20T04:56:28;4.80;99.90
8420;DHT22;4247;48.550;8.822;2022-11-20T04:58:55;4.80;99.90
8420;DHT22;4247;48.550;8.822;2022-11-20T05:01:23;4.80;99.90
8420;DHT22;4247;48.550;8.822;2022-11-20T05:03:51;4.80;99.90
8420;DHT22;4247;48.550;8.822;2022-11-20T05:06:19;4.80;99.90
8420;DHT22;4247;48.550;8.822;2022-11-20T05:08:46;4.80;99.90
8420;DHT22;4247;48.550;8.822;2022-11-20T05:11:15;4.80;99.90
8420;DHT22;4247;48.550;8.822;2022-11-20T05:13:43;4.80;99.90
8420;DHT22;4247;48.550;8.822;2022-11-20T05:16:12;4.80;99.90
8420;DHT22;4247;48.550;8.822;2022-11-20T05:18:40;4.80;99.90
8420;DHT22;4247;48.550;8.822;2022-11-20T05:21:07;4.70;99.90
8420;DHT22;4247;48.550;8.822;2022-11-20T05:23:35;4.70;99.90
8420;DHT22;4247;48.550;8.822;2022-11-20T05:26:03;4.70;99.90
8420;DHT22;4247;48.550;8.822;2022-11-20T05:28:30;4.60;99.90
8420;DHT22;4247;48.550;8.822;2022-11-20T05:31:05;4.50;99.90
8420;DHT22;4247;48.550;8.822;2022-11-20T05:33:33;4.50;99.90
8420;DHT22;4247;48.550;8.822;2022-11-20T05:36:00;4.50;99.90
8420;DHT22;4247;48.550;8.822;2022-11-20T05:38:26;4.50;99.90
8420;DHT22;4247;48.550;8.822;2022-11-20T05:40:53;4.50;99.90
8420;DHT22;4247;48.550;8.822;2022-11-20T05:43:20;4.50;99.90
8420;DHT22;4247;48.550;8.822;2022-11-20T05:45:52;4.60;99.90
8420;DHT22;4247;48.550;8.822;2022-11-20T05:48:21;4.60;99.90
8420;DHT22;4247;48.550;8.822;2022-11-20T05:50:48;4.60;99.90
8420;DHT22;4247;48.550;8.822;2022-11-20T05:53:14;4.60;99.90
8420;DHT22;4247;48.550;8.822;2022-11-20T05:55:41;4.70;99.90
8420;DHT22;4247;48.550;8.822;2022-11-20T05:58:08;4.60;99.90
8420;DHT22;4247;48.550;8.822;2022-11-20T06:00:35;4.70;99.90
8420;DHT22;4247;48.550;8.822;2022-11-20T06:03:03;4.70;99.90
8420;DHT22;4247;48.550;8.822;2022-11-20T06:05:33;4.80;99.90
8420;DHT22;4247;48.550;8.822;2022-11-20T06:08:00;4.80;99.90
8420;DHT22;4247;48.550;8.822;2022-11-20T06:10:28;4.90;99.90
8420;DHT22;4247;48.550;8.822;2022-11-20T06:12:57;4.90;99.90
8420;DHT22;4247;48.550;8.822;2022-11-20T06:15:24;5.00;99.90
8420;DHT22;4247;48.550;8.822;2022-11-20T06:17:52;4.90;99.90
8420;DHT22;4247;48.550;8.822;2022-11-20T06:20:19;5.00;99.90
8420;DHT22;4247;48.550;8.822;2022-11-20T06:22:47;5.00;99.90
8420;DHT22;4247;48.550;8.822;2022-11-20T06:25:14;5.00;99.90
8420;DHT22;4247;48.550;8.822;2022-11-20T06:27:41;5.00;99.90
8420;DHT22;4247;48.550;8.822;2022-11-20T06:30:09;5.10;99.90
8420;DHT22;4247;48.550;8.822;2022-11-20T06:32:36;5.10;99.90
8420;DHT22;4247;48.550;8.822;2022-11-20T06:35:04;5.10;99.90
8420;DHT22;4247;48.550;8.822;2022-11-20T06:37:31;5.10;99.90
8420;DHT22;4247;48.550;8.822;2022-11-20T06:39:59;5.10;99.90
8420;DHT22;4247;48.550;8.822;2022-11-20T06:42:26;5.10;99.90
8420;DHT22;4247;48.550;8.822;2022-11-20T06:44:53;5.20;99.90
8420;DHT22;4247;48.550;8.822;2022-11-20T06:47:20;5.20;99.90
8420;DHT22;4247;48.550;8.822;2022-11-20T06:49:47;5.20;99.90
8420;DHT22;4247;48.550;8.822;2022-11-20T06:52:14;5.20;99.90
8420;DHT22;4247;48.550;8.822;2022-11-20T06:54:40;5.30;99.90
8420;DHT22;4247;48.550;8.822;2022-11-20T06:57:09;5.30;99.90
8420;DHT22;4247;48.550;8.822;2022-11-20T06:59:36;5.30;99.90
8420;DHT22;4247;48.550;8.822;2022-11-20T07:02:02;5.30;99.90
8420;DHT22;4247;48.550;8.822;2022-11-20T07:04:29;5.30;99.90
8420;DHT22;4247;48.550;8.822;2022-11-20T07:06:56;5.30;99.90
8420;DHT22;4247;48.550;8.822;2022-11-20T07:09:23;5.40;99.90
8420;DHT22;4247;48.550;8.822;2022-11-20T07:11:50;5.40;99.90
8420;DHT22;4247;48.550;8.822;2022-11-20T07:14:18;5.40;99.90
8420;DHT22;4247;48.550;8.822;2022-11-20T07:16:45;5.40;99.90
8420;DHT22;4247;48.550;8.822;2022-11-20T07:19:12;5.40;99.90
8420;DHT22;4247;48.550;8.822;2022-11-20T07:21:39;5.40;99.90
8420;DHT22;4247;48.550;8.822;2022-11-20T07:24:06;5.50;99.90
8420;DHT22;4247;48.550;8.822;2022-11-20T07:26:33;5.50;99.90
8420;DHT22;4247;48.550;8.822;2022-11-20T07:28:59;5.50;99.90
8420;DHT22;4247;48.550;8.822;2022-11-20T07:31:28;5.50;99.90
8420;DHT22;4247;48.550;8.822;2022-11-20T07:33:55;5.60;99.90
8420;DHT22;4247;48.550;8.822;2022-11-20T07:36:21;5.60;99.90
8420;DHT22;4247;48.550;8.822;2022-11-20T07:38:48;5.60;99.90
8420;DHT22;4247;48.550;8.822;2022-11-20T07:41:15;5.60;99.90
8420;DHT22;4247;48.550;8.822;2022-11-20T07:43:42;5.70;99.90
8420;DHT22;4247;48.550;8.822;2022-11-20T07:46:09;5.70;99.90
8420;DHT22;4247;48.550;8.822;2022-11-20T07:48:37;5.80;99.90
8420;DHT22;4247;48.550;8.822;2022-11-20T07:51:04;5.80;99.90
8420;DHT22;4247;48.550;8.822;2022-11-20T07:53:31;5.80;99.90
8420;DHT22;4247;48.550;8.822;2022-11-20T07:55:59;5.80;99.90
8420;DHT22;4247;48.550;8.822;2022-11-20T07:58:26;5.80;99.90
8420;DHT22;4247;48.550;8.822;2022-11-20T08:00:55;5.80;99.90
8420;DHT22;4247;48.550;8.822;2022-11-20T08:03:21;5.80;99.90
8420;DHT22;4247;48.550;8.822;2022-11-20T08:05:51;5.70;99.90
8420;DHT22;4247;48.550;8.822;2022-11-20T08:08:17;5.70;99.90
8420;DHT22;4247;48.550;8.822;2022-11-20T08:10:45;5.70;99.90
8420;DHT22;4247;48.550;8.822;2022-11-20T08:13:12;5.70;99.90
8420;DHT22;4247;48.550;8.822;2022-11-20T08:15:56;5.70;99.90
8420;DHT22;4247;48.550;8.822;2022-11-20T08:18:23;5.70;99.90
8420;DHT22;4247;48.550;8.822;2022-11-20T08:20:51;5.70;99.90
8420;DHT22;4247;48.550;8.822;2022-11-20T08:23:18;5.80;99.90
8420;DHT22;4247;48.550;8.822;2022-11-20T08:25:49;5.80;99.90
8420;DHT22;4247;48.550;8.822;2022-11-20T08:28:16;5.80;99.90
8420;DHT22;4247;48.550;8.822;2022-11-20T08:30:43;5.90;99.90
8420;DHT22;4247;48.550;8.822;2022-11-20T08:33:11;6.00;99.90
8420;DHT22;4247;48.550;8.822;2022-11-20T08:35:38;6.00;99.90
8420;DHT22;4247;48.550;8.822;2022-11-20T08:38:09;6.10;99.90
8420;DHT22;4247;48.550;8.822;2022-11-20T08:40:36;6.10;99.90
8420;DHT22;4247;48.550;8.822;2022-11-20T08:43:03;6.20;99.90
8420;DHT22;4247;48.550;8.822;2022-11-20T08:45:29;6.20;99.90
8420;DHT22;4247;48.550;8.822;2022-11-20T08:48:00;6.30;99.90
8420;DHT22;4247;48.550;8.822;2022-11-20T08:50:27;6.40;99.90
8420;DHT22;4247;48.550;8.822;2022-11-20T08:53:02;6.40;99.90
8420;DHT22;4247;48.550;8.822;2022-11-20T08:55:30;6.40;99.90
8420;DHT22;4247;48.550;8.822;2022-11-20T08:57:57;6.50;99.90
8420;DHT22;4247;48.550;8.822;2022-11-20T09:00:24;6.50;99.90
8420;DHT22;4247;48.550;8.822;2022-11-20T09:02:51;6.50;99.90
8420;DHT22;4247;48.550;8.822;2022-11-20T09:05:18;6.50;99.90
8420;DHT22;4247;48.550;8.822;2022-11-20T09:07:45;6.50;99.90
8420;DHT22;4247;48.550;8.822;2022-11-20T09:10:12;6.60;99.90
8420;DHT22;4247;48.550;8.822;2022-11-20T09:12:40;6.60;99.90
8420;DHT22;4247;48.550;8.822;2022-11-20T09:15:08;6.60;99.90
8420;DHT22;4247;48.550;8.822;2022-11-20T09:17:34;6.60;99.90
8420;DHT22;4247;48.550;8.822;2022-11-20T09:20:01;6.60;99.90
8420;DHT22;4247;48.550;8.822;2022-11-20T09:22:28;6.60;99.90
8420;DHT22;4247;48.550;8.822;2022-11-20T09:24:55;6.70;99.90
8420;DHT22;4247;48.550;8.822;2022-11-20T09:27:22;6.70;99.90
8420;DHT22;4247;48.550;8.822;2022-11-20T09:29:50;6.70;99.90
8420;DHT22;4247;48.550;8.822;2022-11-20T09:32:17;6.70;99.90
8420;DHT22;4247;48.550;8.822;2022-11-20T09:34:43;6.70;99.90
8420;DHT22;4247;48.550;8.822;2022-11-20T09:37:10;6.70;99.90
8420;DHT22;4247;48.550;8.822;2022-11-20T09:39:37;6.70;99.90
8420;DHT22;4247;48.550;8.822;2022-11-20T09:42:22;6.70;99.90
8420;DHT22;4247;48.550;8.822;2022-11-20T09:45:03;6.80;99.90
8420;DHT22;4247;48.550;8.822;2022-11-20T09:47:37;6.90;99.90
8420;DHT22;4247;48.550;8.822;2022-11-20T09:50:20;6.90;99.90
8420;DHT22;4247;48.550;8.822;2022-11-20T09:53:01;7.00;99.90
8420;DHT22;4247;48.550;8.822;2022-11-20T09:55:31;7.00;99.90
8420;DHT22;4247;48.550;8.822;2022-11-20T09:57:59;7.00;99.90
8420;DHT22;4247;48.550;8.822;2022-11-20T10:00:28;7.00;99.90
8420;DHT22;4247;48.550;8.822;2022-11-20T10:02:59;7.00;99.90
8420;DHT22;4247;48.550;8.822;2022-11-20T10:05:31;7.00;99.90
8420;DHT22;4247;48.550;8.822;2022-11-20T10:08:15;7.10;99.90
8420;DHT22;4247;48.550;8.822;2022-11-20T10:10:46;7.10;99.90
8420;DHT22;4247;48.550;8.822;2022-11-20T10:13:24;7.20;99.90
8420;DHT22;4247;48.550;8.822;2022-11-20T10:16:03;7.30;99.90
8420;DHT22;4247;48.550;8.822;2022-11-20T10:18:48;7.30;99.90
8420;DHT22;4247;48.550;8.822;2022-11-20T10:21:24;7.40;99.90
8420;DHT22;4247;48.550;8.822;2022-11-20T10:24:39;7.40;99.90
8420;DHT22;4247;48.550;8.822;2022-11-20T10:27:22;7.40;99.90
8420;DHT22;4247;48.550;8.822;2022-11-20T10:30:00;7.50;99.90
8420;DHT22;4247;48.550;8.822;2022-11-20T10:32:34;7.60;99.90
8420;DHT22;4247;48.550;8.822;2022-11-20T10:35:06;7.60;99.90
8420;DHT22;4247;48.550;8.822;2022-11-20T10:37:37;7.70;99.90
8420;DHT22;4247;48.550;8.822;2022-11-20T10:40:20;7.60;99.90
8420;DHT22;4247;48.550;8.822;2022-11-20T10:42:52;7.70;99.90
8420;DHT22;4247;48.550;8.822;2022-11-20T10:45:34;7.80;99.90
8420;DHT22;4247;48.550;8.822;2022-11-20T10:48:10;7.90;99.90
8420;DHT22;4247;48.550;8.822;2022-11-20T10:50:46;8.00;99.90
8420;DHT22;4247;48.550;8.822;2022-11-20T10:53:22;8.10;99.90
8420;DHT22;4247;48.550;8.822;2022-11-20T10:56:00;8.10;99.90
8420;DHT22;4247;48.550;8.822;2022-11-20T10:58:35;8.10;99.90
8420;DHT22;4247;48.550;8.822;2022-11-20T11:01:04;8.10;99.90
8420;DHT22;4247;48.550;8.822;2022-11-20T11:03:33;8.10;99.90
8420;DHT22;4247;48.550;8.822;2022-11-20T11:06:05;8.20;99.90
8420;DHT22;4247;48.550;8.822;2022-11-20T11:08:37;8.20;99.90
8420;DHT22;4247;48.550;8.822;2022-11-20T11:11:15;8.20;99.90
8420;DHT22;4247;48.550;8.822;2022-11-20T11:13:44;8.30;99.90
8420;DHT22;4247;48.550;8.822;2022-11-20T11:16:20;8.40;99.90
8420;DHT22;4247;48.550;8.822;2022-11-20T11:18:48;8.30;99.90
8420;DHT22;4247;48.550;8.822;2022-11-20T11:21:21;8.20;99.90
8420;DHT22;4247;48.550;8.822;2022-11-20T11:23:57;8.10;99.90
8420;DHT22;4247;48.550;8.822;2022-11-20T11:26:24;8.00;99.90
8420;DHT22;4247;48.550;8.822;2022-11-20T11:28:56;7.90;99.90
8420;DHT22;4247;48.550;8.822;2022-11-20T11:31:24;7.90;99.90
8420;DHT22;4247;48.550;8.822;2022-11-20T11:34:03;7.80;99.90
8420;DHT22;4247;48.550;8.822;2022-11-20T11:36:32;7.70;99.90
8420;DHT22;4247;48.550;8.822;2022-11-20T11:38:59;7.70;99.90
8420;DHT22;4247;48.550;8.822;2022-11-20T11:41:30;7.60;99.90
8420;DHT22;4247;48.550;8.822;2022-11-20T11:44:01;7.50;99.90
8420;DHT22;4247;48.550;8.822;2022-11-20T11:46:53;7.50;99.90
8420;DHT22;4247;48.550;8.822;2022-11-20T11:49:22;7.40;99.90
8420;DHT22;4247;48.550;8.822;2022-11-20T11:52:08;7.30;99.90
8420;DHT22;4247;48.550;8.822;2022-11-20T11:54:41;7.30;99.90
8420;DHT22;4247;48.550;8.822;2022-11-20T11:57:14;7.30;99.90
8420;DHT22;4247;48.550;8.822;2022-11-20T11:59:53;7.30;99.90
8420;DHT22;4247;48.550;8.822;2022-11-20T12:02:32;7.20;99.90
8420;DHT22;4247;48.550;8.822;2022-11-20T12:05:06;7.30;99.90
8420;DHT22;4247;48.550;8.822;2022-11-20T12:07:41;7.30;99.90
8420;DHT22;4247;48.550;8.822;2022-11-20T12:10:19;7.40;99.90
8420;DHT22;4247;48.550;8.822;2022-11-20T12:12:50;7.50;99.90
8420;DHT22;4247;48.550;8.822;2022-11-20T12:15:25;7.50;99.90
8420;DHT22;4247;48.550;8.822;2022-11-20T12:17:52;7.60;99.90
8420;DHT22;4247;48.550;8.822;2022-11-20T12:20:22;7.80;99.90
8420;DHT22;4247;48.550;8.822;2022-11-20T12:22:55;7.90;99.90
8420;DHT22;4247;48.550;8.822;2022-11-20T12:25:24;8.00;99.90
8420;DHT22;4247;48.550;8.822;2022-11-20T12:28:07;7.90;99.90
8420;DHT22;4247;48.550;8.822;2022-11-20T12:30:40;7.90;99.90
8420;DHT22;4247;48.550;8.822;2022-11-20T12:33:17;7.80;99.90
8420;DHT22;4247;48.550;8.822;2022-11-20T12:36:01;7.70;99.90
8420;DHT22;4247;48.550;8.822;2022-11-20T12:39:02;7.70;99.90
8420;DHT22;4247;48.550;8.822;2022-11-20T12:41:50;7.60;99.90
8420;DHT22;4247;48.550;8.822;2022-11-20T12:44:48;7.50;99.90
8420;DHT22;4247;48.550;8.822;2022-11-20T12:47:49;7.40;99.90
8420;DHT22;4247;48.550;8.822;2022-11-20T12:50:24;7.40;99.90
8420;DHT22;4247;48.550;8.822;2022-11-20T12:52:57;7.30;99.90
8420;DHT22;4247;48.550;8.822;2022-11-20T12:55:35;7.30;99.90
8420;DHT22;4247;48.550;8.822;2022-11-20T12:58:08;7.20;99.90
8420;DHT22;4247;48.550;8.822;2022-11-20T13:00:38;7.20;99.90
8420;DHT22;4247;48.550;8.822;2022-11-20T13:03:32;7.30;99.90
8420;DHT22;4247;48.550;8.822;2022-11-20T13:06:05;7.20;99.90
8420;DHT22;4247;48.550;8.822;2022-11-20T13:08:39;7.20;99.90
8420;DHT22;4247;48.550;8.822;2022-11-20T13:11:12;7.20;99.90
8420;DHT22;4247;48.550;8.822;2022-11-20T13:13:52;7.10;99.90
8420;DHT22;4247;48.550;8.822;2022-11-20T13:16:26;7.20;99.90
8420;DHT22;4247;48.550;8.822;2022-11-20T13:18:56;7.10;99.90
8420;DHT22;4247;48.550;8.822;2022-11-20T13:21:36;7.10;99.90
8420;DHT22;4247;48.550;8.822;2022-11-20T13:24:21;7.20;99.90
8420;DHT22;4247;48.550;8.822;2022-11-20T13:27:00;7.20;99.90
8420;DHT22;4247;48.550;8.822;2022-11-20T13:29:27;7.30;99.90
8420;DHT22;4247;48.550;8.822;2022-11-20T13:32:03;7.30;99.90
8420;DHT22;4247;48.550;8.822;2022-11-20T13:34:31;7.40;99.90
8420;DHT22;4247;48.550;8.822;2022-11-20T13:36:59;7.50;99.90
8420;DHT22;4247;48.550;8.822;2022-11-20T13:39:31;7.60;99.90
8420;DHT22;4247;48.550;8.822;2022-11-20T13:42:00;7.60;99.90
8420;DHT22;4247;48.550;8.822;2022-11-20T13:44:33;7.60;99.90
8420;DHT22;4247;48.550;8.822;2022-11-20T13:47:01;7.60;99.90
8420;DHT22;4247;48.550;8.822;2022-11-20T13:49:32;7.60;99.90
8420;DHT22;4247;48.550;8.822;2022-11-20T13:52:20;7.60;99.90
8420;DHT22;4247;48.550;8.822;2022-11-20T13:55:06;7.60;99.90
8420;DHT22;4247;48.550;8.822;2022-11-20T13:57:58;7.50;99.90
8420;DHT22;4247;48.550;8.822;2022-11-20T14:00:28;7.40;99.90
8420;DHT22;4247;48.550;8.822;2022-11-20T14:03:02;7.30;99.90
8420;DHT22;4247;48.550;8.822;2022-11-20T14:05:36;7.20;99.90
8420;DHT22;4247;48.550;8.822;2022-11-20T14:08:06;7.20;99.90
8420;DHT22;4247;48.550;8.822;2022-11-20T14:10:38;7.20;99.90
8420;DHT22;4247;48.550;8.822;2022-11-20T14:13:18;7.10;99.90
8420;DHT22;4247;48.550;8.822;2022-11-20T14:15:45;7.10;99.90
8420;DHT22;4247;48.550;8.822;2022-11-20T14:18:14;7.10;99.90
8420;DHT22;4247;48.550;8.822;2022-11-20T14:20:42;7.00;99.90
8420;DHT22;4247;48.550;8.822;2022-11-20T14:23:10;7.00;99.90
8420;DHT22;4247;48.550;8.822;2022-11-20T14:25:42;7.00;99.90
8420;DHT22;4247;48.550;8.822;2022-11-20T14:28:11;7.00;99.90
8420;DHT22;4247;48.550;8.822;2022-11-20T14:30:47;6.90;99.90
8420;DHT22;4247;48.550;8.822;2022-11-20T14:33:15;6.90;99.90
8420;DHT22;4247;48.550;8.822;2022-11-20T14:35:45;6.90;99.90
8420;DHT22;4247;48.550;8.822;2022-11-20T14:38:14;6.90;99.90
8420;DHT22;4247;48.550;8.822;2022-11-20T14:40:43;6.90;99.90
8420;DHT22;4247;48.550;8.822;2022-11-20T14:43:19;6.90;99.90
8420;DHT22;4247;48.550;8.822;2022-11-20T14:45:52;6.90;99.90
8420;DHT22;4247;48.550;8.822;2022-11-20T14:48:24;7.00;99.90
8420;DHT22;4247;48.550;8.822;2022-11-20T14:50:52;7.00;99.90
8420;DHT22;4247;48.550;8.822;2022-11-20T14:53:22;7.00;99.90
8420;DHT22;4247;48.550;8.822;2022-11-20T14:55:57;7.00;99.90
8420;DHT22;4247;48.550;8.822;2022-11-20T14:58:25;7.00;99.90
8420;DHT22;4247;48.550;8.822;2022-11-20T15:00:54;7.00;99.90
8420;DHT22;4247;48.550;8.822;2022-11-20T15:03:22;7.10;99.90
8420;DHT22;4247;48.550;8.822;2022-11-20T15:05:50;7.00;99.90
8420;DHT22;4247;48.550;8.822;2022-11-20T15:08:18;7.00;99.90
8420;DHT22;4247;48.550;8.822;2022-11-20T15:10:46;7.00;99.90
8420;DHT22;4247;48.550;8.822;2022-11-20T15:13:18;6.90;99.90
8420;DHT22;4247;48.550;8.822;2022-11-20T15:15:48;6.90;99.90
8420;DHT22;4247;48.550;8.822;2022-11-20T15:18:17;6.80;99.90
8420;DHT22;4247;48.550;8.822;2022-11-20T15:20:45;6.80;99.90
8420;DHT22;4247;48.550;8.822;2022-11-20T15:23:14;6.80;99.90
8420;DHT22;4247;48.550;8.822;2022-11-20T15:25:41;6.70;99.90
8420;DHT22;4247;48.550;8.822;2022-11-20T15:28:18;6.70;99.90
8420;DHT22;4247;48.550;8.822;2022-11-20T15:30:46;6.70;99.90
8420;DHT22;4247;48.550;8.822;2022-11-20T15:33:13;6.70;99.90
8420;DHT22;4247;48.550;8.822;2022-11-20T15:35:40;6.60;99.90
8420;DHT22;4247;48.550;8.822;2022-11-20T15:38:07;6.50;99.90
8420;DHT22;4247;48.550;8.822;2022-11-20T15:40:34;6.50;99.90
8420;DHT22;4247;48.550;8.822;2022-11-20T15:43:01;6.40;99.90
8420;DHT22;4247;48.550;8.822;2022-11-20T15:45:34;6.40;99.90
8420;DHT22;4247;48.550;8.822;2022-11-20T15:48:04;6.50;99.90
8420;DHT22;4247;48.550;8.822;2022-11-20T15:50:37;6.40;99.90
8420;DHT22;4247;48.550;8.822;2022-11-20T15:53:04;6.40;99.90
8420;DHT22;4247;48.550;8.822;2022-11-20T15:55:31;6.40;99.90
8420;DHT22;4247;48.550;8.822;2022-11-20T15:57:58;6.40;99.90
8420;DHT22;4247;48.550;8.822;2022-11-20T16:00:25;6.40;99.90
8420;DHT22;4247;48.550;8.822;2022-11-20T16:02:53;6.40;99.90
8420;DHT22;4247;48.550;8.822;2022-11-20T16:05:20;6.40;99.90
8420;DHT22;4247;48.550;8.822;2022-11-20T16:07:48;6.40;99.90
8420;DHT22;4247;48.550;8.822;2022-11-20T16:10:16;6.40;99.90
8420;DHT22;4247;48.550;8.822;2022-11-20T16:12:43;6.30;99.90
8420;DHT22;4247;48.550;8.822;2022-11-20T16:15:28;6.40;99.90
8420;DHT22;4247;48.550;8.822;2022-11-20T16:18:16;6.40;99.90
8420;DHT22;4247;48.550;8.822;2022-11-20T16:20:44;6.40;99.90
8420;DHT22;4247;48.550;8.822;2022-11-20T16:23:11;6.30;99.90
8420;DHT22;4247;48.550;8.822;2022-11-20T16:25:38;6.30;99.90
8420;DHT22;4247;48.550;8.822;2022-11-20T16:28:05;6.30;99.90
8420;DHT22;4247;48.550;8.822;2022-11-20T16:30:32;6.30;99.90
8420;DHT22;4247;48.550;8.822;2022-11-20T16:32:59;6.40;99.90
8420;DHT22;4247;48.550;8.822;2022-11-20T16:35:28;6.40;99.90
8420;DHT22;4247;48.550;8.822;2022-11-20T16:37:55;6.40;99.90